Santa Ana, CA (92705)

12:44 PM PDT on July 23, 2016 (GMT -0700)
Lemon Heights | | Change Station
Active Advisory: Heat Advisory

Elev 151 ft 33.75 °N, 117.82 °W | Updated 35 seconds ago

Partly Cloudy
Partly Cloudy
91.8 °F
Feels Like 94 °F
N
5.0
Wind Variable Wind from WSW
Gusts 8.0 mph

Today
High -- | Low -- °F
--% Chance of Precip.
Yesterday
High -- | Low -- °F
Precip. -- in
Pressure 29.81 in
Visibility 10.0 miles
Clouds Few 25000 ft
Heat Index 94 °F
Dew Point 65 °F
Humidity 42%
Rainfall 0.00 in
Snow Depth Not available.
5:57 AM 7:57 PM
Waning Gibbous, 83% visible
METAR KSNA 231853Z 21011KT 10SM FEW250 27/18 A2981 RMK AO2 SLP092 FU FEW250 T02720183
Pressure 29.81 in
Visibility 10.0 miles
Clouds Few 25000 ft
Heat Index 94 °F
Dew Point 65 °F
Humidity 42%
Rainfall 0.00 in
Snow Depth Not available.
5:57 AM 7:57 PM
Waning Gibbous, 83% visible
METAR KSNA 231853Z 21011KT 10SM FEW250 27/18 A2981 RMK AO2 SLP092 FU FEW250 T02720183

10-Day Weather Forecast

Almanac

Astronomy

Jul. 23, 2016 Rise Set
Actual Time
Civil Twilight
Nautical Twilight
Astronomical Twilight
Moon
Length of Visible Light
Length of Day
Tomorrow will be .
, % of the Moon is Illuminated

Today's Extremes

State Highs State Lows

Community

WunderPhotos

Upload Photos

1,926,909 photos uploaded!

WunderBlog® & News

Nearby

Air Quality

  Air Quality AQ Index Pollutant
Not available.

Snow Depth

Station Depth Elevation

Earthquake Activity

City Distance Mag. Time & Date
Minimum magnitude displayed is 2.5.

Coastal Water Temperatures

Place Temperature

Stations

Nearby Weather Stations

Station Location Temp. Windchill Dew Point Humidity Wind Precip. Elev Updated Type
                   

Watches & Warnings

Heat Advisory
Issued: 3:37 AM PDT Jul. 23, 2016 – National Weather Service

... Heat advisory remains in effect until 8 PM PDT this evening...

* high temperatures today...

inland Orange County... ... ... ... ... ... 90s.
Santa Ana Mountains below 3000 feet... 95 to 105.

* Impacts... over exposure to heat could lead to heat illness
especially for people at risk... including the elderly and
children. Pets are also at risk. Remember to check your
backseat for people and pets!!

Precautionary/preparedness actions...

Take extra precautions if you work or spend time outside. When
possible... reschedule strenuous activities to early morning or
evening. Know the signs and symptoms of heat exhaustion and heat
stroke. Wear light weight and loose fitting clothing when
possible and drink plenty of water.

To reduce risk during outdoor work the occupational safety and
health administration recommends scheduling frequent rest breaks
in shaded or air conditioned environments. Anyone overcome by
heat should be moved to a cool and shaded location. Heat stroke
is an emergency - call 9 1 1.



17